createdAt,value
2022-12-24T00:01:42.874Z,87977.00
2022-12-24T00:08:42.669Z,87965.00
2022-12-24T00:15:42.461Z,87979.00
2022-12-24T00:22:42.323Z,87997.00
2022-12-24T00:44:41.619Z,87983.00
2022-12-24T00:45:41.586Z,87985.00
2022-12-24T00:46:41.687Z,87985.00
2022-12-24T00:47:41.543Z,87983.00
2022-12-24T00:48:41.506Z,87987.00
2022-12-24T00:49:41.474Z,87987.00
2022-12-24T00:50:41.521Z,87989.00
2022-12-24T00:51:41.411Z,87995.00
2022-12-24T00:52:41.381Z,87997.00
2022-12-24T00:53:41.358Z,88001.00
2022-12-24T00:54:41.314Z,87999.00
2022-12-24T00:55:41.287Z,87995.00
2022-12-24T00:56:41.253Z,87997.00
2022-12-24T00:57:41.230Z,88001.00
2022-12-24T00:58:41.207Z,87999.00
2022-12-24T00:59:41.166Z,87999.00
2022-12-24T01:00:41.120Z,87999.00
2022-12-24T01:01:41.213Z,87993.00
2022-12-24T01:02:41.238Z,87995.00
2022-12-24T01:03:41.151Z,87999.00
2022-12-24T01:04:40.983Z,88003.00
2022-12-24T01:05:40.945Z,88005.00
2022-12-24T01:06:40.906Z,88003.00
2022-12-24T01:07:40.875Z,88003.00
2022-12-24T01:08:40.836Z,88005.00
2022-12-24T01:09:40.808Z,88005.00
2022-12-24T01:10:40.776Z,88005.00
2022-12-24T01:11:40.747Z,88009.00
2022-12-24T01:12:40.711Z,88013.00
2022-12-24T01:13:40.688Z,88015.00
2022-12-24T01:14:40.655Z,88020.00
2022-12-24T01:15:40.698Z,88024.00
2022-12-24T01:16:40.645Z,88030.00
2022-12-24T01:17:40.558Z,88028.00
2022-12-24T01:18:40.524Z,88026.00
2022-12-24T01:19:40.485Z,88024.00
2022-12-24T01:20:40.452Z,88022.00
2022-12-24T01:21:40.401Z,88022.00
2022-12-24T01:22:40.381Z,88028.00
2022-12-24T01:23:40.804Z,88032.00
2022-12-24T01:24:40.303Z,88032.00
2022-12-24T01:25:40.293Z,88036.00
2022-12-24T01:26:40.233Z,88042.00
2022-12-24T01:27:40.206Z,88046.00
2022-12-24T01:28:40.169Z,88046.00
2022-12-24T01:29:40.129Z,88044.00
2022-12-24T01:30:40.098Z,88040.00
2022-12-24T01:35:40.720Z,88034.00
2022-12-24T04:34:34.557Z,88185.00
2022-12-24T04:35:34.525Z,88189.00
2022-12-24T04:36:34.514Z,88191.00
2022-12-24T04:37:34.485Z,88195.00
2022-12-24T04:38:34.474Z,88195.00
2022-12-24T04:39:34.432Z,88195.00
2022-12-24T04:40:34.405Z,88195.00
2022-12-24T04:41:34.386Z,88195.00
2022-12-24T04:42:34.353Z,88195.00
2022-12-24T04:43:34.326Z,88191.00
2022-12-24T04:44:34.334Z,88183.00
2022-12-24T04:45:34.331Z,88181.00
2022-12-24T04:46:34.240Z,88176.00
2022-12-24T04:47:34.229Z,88177.00
2022-12-24T04:48:34.189Z,88177.00
2022-12-24T04:49:34.160Z,88177.00
2022-12-24T04:50:34.137Z,88177.00
2022-12-24T04:51:34.121Z,88179.00
2022-12-24T04:52:34.080Z,88181.00
2022-12-24T04:53:34.060Z,88183.00
2022-12-24T04:54:34.019Z,88183.00
2022-12-24T04:55:33.995Z,88185.00
2022-12-24T04:56:33.971Z,88187.00
2022-12-24T04:57:33.971Z,88189.00
2022-12-24T04:58:33.906Z,88191.00
2022-12-24T04:59:33.883Z,88193.00
2022-12-24T05:00:33.863Z,88197.00
2022-12-24T05:01:33.994Z,88197.00
2022-12-24T05:02:34.104Z,88195.00
2022-12-24T05:03:33.845Z,88193.00
2022-12-24T05:04:33.767Z,88191.00
2022-12-24T05:05:33.738Z,88187.00
2022-12-24T05:06:33.731Z,88185.00
2022-12-24T05:07:33.706Z,88191.00
2022-12-24T05:08:33.681Z,88191.00
2022-12-24T05:09:33.655Z,88193.00
2022-12-24T05:10:33.618Z,88191.00
2022-12-24T05:11:33.583Z,88187.00
2022-12-24T05:12:33.565Z,88187.00
2022-12-24T05:13:40.749Z,88187.00
2022-12-24T05:14:34.489Z,88185.00
2022-12-24T05:15:33.465Z,88179.00
2022-12-24T05:16:33.479Z,88170.00
2022-12-24T05:17:33.401Z,88164.00
2022-12-24T05:18:33.377Z,88160.00
2022-12-24T05:19:33.339Z,88162.00
2022-12-24T05:20:33.326Z,88162.00
2022-12-24T05:21:33.312Z,88162.00
2022-12-24T05:22:33.314Z,88160.00
2022-12-24T05:23:33.241Z,88158.00
2022-12-24T05:24:33.213Z,88160.00
2022-12-24T05:25:33.195Z,88164.00
2022-12-24T05:26:33.164Z,88158.00
2022-12-24T05:27:33.129Z,88156.00
2022-12-24T05:28:33.114Z,88154.00
2022-12-24T05:29:33.082Z,88154.00
2022-12-24T05:30:33.112Z,88152.00
2022-12-24T05:31:33.024Z,88156.00
2022-12-24T05:32:33.011Z,88156.00
2022-12-24T05:33:32.968Z,88156.00
2022-12-24T05:34:32.951Z,88154.00
2022-12-24T05:35:32.932Z,88154.00
2022-12-24T05:36:32.902Z,88156.00
2022-12-24T05:37:32.860Z,88166.00
2022-12-24T05:38:32.839Z,88168.00
2022-12-24T05:39:32.813Z,88172.00
2022-12-24T05:40:32.784Z,88177.00
2022-12-24T05:41:32.739Z,88181.00
2022-12-24T05:42:32.726Z,88176.00
2022-12-24T05:43:32.680Z,88172.00
2022-12-24T05:44:32.664Z,88170.00
2022-12-24T05:45:32.626Z,88170.00
2022-12-24T05:46:32.663Z,88166.00
2022-12-24T05:47:35.689Z,88162.00
2022-12-24T05:48:33.549Z,88158.00
2022-12-24T05:49:32.527Z,88154.00
2022-12-24T05:50:32.493Z,88156.00
2022-12-24T05:51:32.456Z,88160.00
2022-12-24T05:52:32.424Z,88168.00
2022-12-24T05:53:32.423Z,88174.00
2022-12-24T05:54:32.353Z,88179.00
2022-12-24T05:55:32.345Z,88181.00
2022-12-24T05:56:32.314Z,88181.00
2022-12-24T05:57:32.296Z,88181.00
2022-12-24T05:58:32.276Z,88179.00
2022-12-24T05:59:32.248Z,88177.00
2022-12-24T06:00:32.196Z,88181.00
2022-12-24T06:01:32.196Z,88183.00
2022-12-24T06:02:32.226Z,88189.00
2022-12-24T06:03:32.101Z,88197.00
2022-12-24T06:04:32.082Z,88205.00
2022-12-24T06:05:32.041Z,88207.00
2022-12-24T06:06:32.020Z,88205.00
2022-12-24T06:07:31.995Z,88214.00
2022-12-24T06:08:31.951Z,88216.00
2022-12-24T06:09:31.989Z,88214.00
2022-12-24T06:10:31.889Z,88214.00
2022-12-24T06:11:31.863Z,88205.00
2022-12-24T06:12:31.839Z,88205.00
2022-12-24T06:13:31.807Z,88205.00
2022-12-24T06:14:31.772Z,88214.00
2022-12-24T06:15:31.759Z,88220.00
2022-12-24T06:16:31.767Z,88226.00
2022-12-24T06:17:31.679Z,88232.00
2022-12-24T06:18:31.637Z,88230.00
2022-12-24T06:19:31.589Z,88228.00
2022-12-24T06:20:31.568Z,88224.00
2022-12-24T06:21:31.527Z,88222.00
2022-12-24T06:22:31.481Z,88222.00
2022-12-24T06:23:31.487Z,88220.00
2022-12-24T06:24:31.415Z,88218.00
2022-12-24T06:25:31.375Z,88216.00
2022-12-24T06:26:31.360Z,88216.00
2022-12-24T06:27:31.312Z,88207.00
2022-12-24T06:28:31.305Z,88214.00
2022-12-24T06:29:31.255Z,88216.00
2022-12-24T06:30:31.224Z,88214.00
2022-12-24T06:31:31.225Z,88216.00
2022-12-24T06:32:31.172Z,88216.00
2022-12-24T06:33:31.144Z,88218.00
2022-12-24T06:34:31.108Z,88218.00
2022-12-24T06:35:31.070Z,88220.00
2022-12-24T06:36:31.044Z,88222.00
2022-12-24T06:37:31.007Z,88222.00
2022-12-24T06:38:30.989Z,88224.00
2022-12-24T06:39:30.954Z,88228.00
2022-12-24T06:40:30.929Z,88232.00
2022-12-24T06:41:30.879Z,88232.00
2022-12-24T06:42:30.851Z,88228.00
2022-12-24T06:43:30.822Z,88232.00
2022-12-24T06:44:30.787Z,88234.00
2022-12-24T06:45:30.762Z,88234.00
2022-12-24T06:46:30.807Z,88236.00
2022-12-24T06:47:30.684Z,88241.00
2022-12-24T06:48:30.676Z,88241.00
2022-12-24T06:49:30.649Z,88241.00
2022-12-24T06:50:30.639Z,88245.00
2022-12-24T06:51:30.692Z,88251.00
2022-12-24T06:52:31.325Z,88253.00
2022-12-24T06:53:30.528Z,88255.00
2022-12-24T06:54:30.473Z,88255.00
2022-12-24T06:55:30.438Z,88259.00
2022-12-24T06:56:30.428Z,88265.00
2022-12-24T06:57:30.376Z,88267.00
2022-12-24T06:58:30.378Z,88263.00
2022-12-24T06:59:30.323Z,88261.00
2022-12-24T07:00:30.308Z,88259.00
2022-12-24T07:01:30.366Z,88257.00
2022-12-24T07:02:30.384Z,88261.00
2022-12-24T07:03:30.286Z,88265.00
2022-12-24T07:04:30.379Z,88265.00
2022-12-24T07:05:30.830Z,88267.00
2022-12-24T07:06:30.115Z,88267.00
2022-12-24T10:46:23.569Z,88396.00
2022-12-24T10:47:23.513Z,88389.00
2022-12-24T10:48:23.448Z,88391.00
2022-12-24T10:49:23.416Z,88385.00
2022-12-24T10:50:23.389Z,88385.00
2022-12-24T10:51:23.360Z,88385.00
2022-12-24T10:52:23.340Z,88387.00
2022-12-24T10:53:23.297Z,88379.00
2022-12-24T10:54:27.227Z,88375.00
2022-12-24T10:55:23.195Z,88373.00
2022-12-24T10:56:23.159Z,88373.00
2022-12-24T10:57:23.147Z,88379.00
2022-12-24T10:58:23.099Z,88383.00
2022-12-24T10:59:23.054Z,88377.00
2022-12-24T11:00:23.031Z,88369.00
2022-12-24T11:01:23.010Z,88369.00
2022-12-24T11:02:23.104Z,88369.00
2022-12-24T11:03:22.928Z,88369.00
2022-12-24T11:04:22.890Z,88371.00
2022-12-24T11:05:22.842Z,88365.00
2022-12-24T11:06:22.808Z,88361.00
2022-12-24T11:07:22.775Z,88363.00
2022-12-24T11:08:22.728Z,88365.00
2022-12-24T11:09:22.696Z,88365.00
2022-12-24T11:10:22.668Z,88365.00
2022-12-24T11:11:22.613Z,88359.00
2022-12-24T11:12:22.586Z,88361.00
2022-12-24T11:13:38.999Z,88363.00
2022-12-24T11:14:23.504Z,88359.00
2022-12-24T11:15:22.469Z,88357.00
2022-12-24T11:16:22.479Z,88357.00
2022-12-24T11:17:22.402Z,88357.00
2022-12-24T11:18:22.350Z,88359.00
2022-12-24T11:19:22.324Z,88363.00
2022-12-24T11:20:22.283Z,88359.00
2022-12-24T11:21:22.251Z,88359.00
2022-12-24T11:22:22.242Z,88363.00
2022-12-24T11:23:22.210Z,88363.00
2022-12-24T11:24:22.175Z,88363.00
2022-12-24T11:25:22.093Z,88359.00
2022-12-24T11:26:22.052Z,88361.00
2022-12-24T11:27:22.013Z,88361.00
2022-12-24T11:28:21.978Z,88365.00
2022-12-24T11:29:21.946Z,88367.00
2022-12-24T11:30:21.876Z,88377.00
2022-12-24T11:31:21.912Z,88373.00
2022-12-24T11:32:21.801Z,88377.00
2022-12-24T11:33:21.779Z,88369.00
2022-12-24T11:34:22.429Z,88371.00
2022-12-24T11:35:22.417Z,88377.00
2022-12-24T11:36:21.793Z,88371.00
2022-12-24T11:37:21.746Z,88369.00
2022-12-24T11:38:21.564Z,88367.00
2022-12-24T11:39:21.546Z,88371.00
2022-12-24T11:40:21.502Z,88373.00
2022-12-24T11:41:21.441Z,88369.00
2022-12-24T11:42:21.402Z,88369.00
2022-12-24T11:43:21.381Z,88367.00
2022-12-24T11:44:21.337Z,88367.00
2022-12-24T11:45:21.325Z,88367.00
2022-12-24T11:46:21.366Z,88371.00
2022-12-24T11:47:21.229Z,88369.00
2022-12-24T11:48:21.192Z,88369.00
2022-12-24T11:49:21.159Z,88369.00
2022-12-24T11:50:21.119Z,88367.00
2022-12-24T11:51:21.077Z,88361.00
2022-12-24T11:52:21.041Z,88363.00
2022-12-24T11:53:21.014Z,88355.00
2022-12-24T11:54:21.005Z,88355.00
2022-12-24T11:55:20.939Z,88355.00
2022-12-24T11:56:20.896Z,88357.00
2022-12-24T11:57:20.879Z,88361.00
2022-12-24T11:58:20.834Z,88359.00
2022-12-24T11:59:20.797Z,88361.00
2022-12-24T12:00:20.764Z,88361.00
2022-12-24T12:01:20.782Z,88359.00
2022-12-24T12:02:20.729Z,88359.00
2022-12-24T12:03:20.671Z,88361.00
2022-12-24T12:04:20.671Z,88357.00
2022-12-24T12:05:20.555Z,88359.00
2022-12-24T12:06:20.513Z,88359.00
2022-12-24T12:07:20.513Z,88353.00
2022-12-24T12:08:20.457Z,88351.00
2022-12-24T12:09:20.490Z,88349.00
2022-12-24T12:10:20.425Z,88353.00
2022-12-24T12:11:20.935Z,88351.00
2022-12-24T12:12:20.374Z,88353.00
2022-12-24T12:13:20.296Z,88353.00
2022-12-24T12:14:20.220Z,88353.00
2022-12-24T12:15:20.183Z,88353.00
2022-12-24T12:16:20.293Z,88353.00
2022-12-24T15:49:12.837Z,88502.00
2022-12-24T15:50:12.828Z,88504.00
2022-12-24T15:51:12.779Z,88508.00
2022-12-24T15:52:12.767Z,88508.00
2022-12-24T15:53:20.535Z,88506.00
2022-12-24T15:54:12.699Z,88506.00
2022-12-24T15:55:12.663Z,88508.00
2022-12-24T15:56:12.636Z,88508.00
2022-12-24T15:57:12.629Z,88506.00
2022-12-24T15:58:12.628Z,88508.00
2022-12-24T15:59:14.516Z,88506.00
2022-12-24T16:00:12.560Z,88508.00
2022-12-24T16:01:13.161Z,88506.00
2022-12-24T16:02:13.254Z,88506.00
2022-12-24T16:03:12.552Z,88504.00
2022-12-24T16:04:13.022Z,88502.00
2022-12-24T16:05:12.376Z,88506.00
2022-12-24T16:06:12.367Z,88506.00
2022-12-24T16:07:12.325Z,88509.00
2022-12-24T16:08:12.290Z,88509.00
2022-12-24T16:09:12.266Z,88509.00
2022-12-24T16:10:12.230Z,88509.00
2022-12-24T16:11:12.217Z,88508.00
2022-12-24T16:12:12.187Z,88509.00
2022-12-24T16:13:12.142Z,88508.00
2022-12-24T16:14:12.128Z,88509.00
2022-12-24T16:15:12.090Z,88508.00
2022-12-24T16:16:12.151Z,88506.00
2022-12-24T16:17:12.053Z,88506.00
2022-12-24T16:18:12.019Z,88506.00
2022-12-24T16:19:12.950Z,88504.00
2022-12-24T16:20:11.970Z,88504.00
2022-12-24T16:21:11.930Z,88502.00
2022-12-24T16:22:11.918Z,88502.00
2022-12-24T16:23:11.891Z,88502.00
2022-12-24T16:24:11.873Z,88506.00
2022-12-24T16:25:11.824Z,88506.00
2022-12-24T16:26:11.793Z,88508.00
2022-12-24T16:27:11.764Z,88508.00
2022-12-24T16:28:16.171Z,88508.00
2022-12-24T16:29:12.733Z,88506.00
2022-12-24T16:30:11.653Z,88508.00
2022-12-24T16:31:11.707Z,88509.00
2022-12-24T16:32:11.594Z,88506.00
2022-12-24T16:33:11.570Z,88506.00
2022-12-24T16:34:11.538Z,88502.00
2022-12-24T16:35:11.504Z,88502.00
2022-12-24T16:36:11.467Z,88498.00
2022-12-24T16:37:11.435Z,88496.00
2022-12-24T16:38:11.411Z,88494.00
2022-12-24T16:39:11.382Z,88498.00
2022-12-24T16:40:16.688Z,88504.00
2022-12-24T16:41:12.331Z,88500.00
2022-12-24T16:42:11.302Z,88502.00
2022-12-24T16:43:11.275Z,88506.00
2022-12-24T16:44:11.239Z,88504.00
2022-12-24T16:45:11.203Z,88506.00
2022-12-24T16:46:11.227Z,88511.00
2022-12-24T16:47:11.139Z,88511.00
2022-12-24T16:48:11.110Z,88508.00
2022-12-24T16:49:11.076Z,88508.00
2022-12-24T16:50:11.049Z,88511.00
2022-12-24T16:51:11.003Z,88506.00
2022-12-24T16:52:10.996Z,88511.00
2022-12-24T16:53:17.206Z,88508.00
2022-12-24T16:54:11.917Z,88509.00
2022-12-24T16:55:10.889Z,88509.00
2022-12-24T16:56:10.848Z,88509.00
2022-12-24T16:57:10.817Z,88508.00
2022-12-24T16:58:10.793Z,88508.00
2022-12-24T16:59:10.751Z,88504.00
2022-12-24T17:00:10.720Z,88504.00
2022-12-24T17:01:10.867Z,88502.00
2022-12-24T17:02:14.395Z,88508.00
2022-12-24T17:03:10.741Z,88506.00
2022-12-24T17:04:10.692Z,88508.00
2022-12-24T17:05:10.668Z,88506.00
2022-12-24T17:06:10.676Z,88511.00
2022-12-24T17:07:11.039Z,88508.00
2022-12-24T17:08:10.549Z,88509.00
2022-12-24T17:09:10.512Z,88509.00
2022-12-24T17:10:10.445Z,88506.00
2022-12-24T17:11:10.434Z,88502.00
2022-12-24T17:12:10.398Z,88500.00
2022-12-24T17:13:10.373Z,88500.00
2022-12-24T17:14:14.941Z,88498.00
2022-12-24T17:15:11.332Z,88496.00
2022-12-24T17:16:10.371Z,88498.00
2022-12-24T17:17:10.283Z,88500.00
2022-12-24T17:18:10.256Z,88502.00
2022-12-24T17:19:10.211Z,88500.00
2022-12-24T17:20:10.183Z,88500.00
2022-12-24T17:21:10.178Z,88502.00
2022-12-24T17:22:10.143Z,88508.00
2022-12-24T17:23:10.122Z,88509.00
2022-12-24T21:15:04.121Z,88572.00
2022-12-24T21:16:03.677Z,88572.00
2022-12-24T21:17:03.696Z,88574.00
2022-12-24T21:18:03.648Z,88574.00
2022-12-24T21:19:03.591Z,88576.00
2022-12-24T21:20:03.478Z,88574.00
2022-12-24T21:21:03.457Z,88576.00
2022-12-24T21:22:03.407Z,88576.00
2022-12-24T21:23:03.381Z,88576.00
2022-12-24T21:24:03.346Z,88576.00
2022-12-24T21:25:03.315Z,88576.00
2022-12-24T21:26:03.286Z,88576.00
2022-12-24T21:27:03.261Z,88576.00
2022-12-24T21:28:03.211Z,88576.00
2022-12-24T21:29:03.174Z,88572.00
2022-12-24T21:30:03.140Z,88570.00
2022-12-24T21:31:03.202Z,88570.00
2022-12-24T21:32:03.102Z,88570.00
2022-12-24T21:33:03.046Z,88566.00
2022-12-24T21:34:03.014Z,88564.00
2022-12-24T21:35:02.978Z,88564.00
2022-12-24T21:36:02.936Z,88566.00
2022-12-24T21:37:02.916Z,88570.00
2022-12-24T21:38:02.865Z,88572.00
2022-12-24T21:39:02.854Z,88574.00
2022-12-24T21:40:02.821Z,88576.00
2022-12-24T21:41:02.774Z,88578.00
2022-12-24T21:42:02.752Z,88576.00
2022-12-24T21:43:02.691Z,88578.00
2022-12-24T21:44:02.677Z,88578.00
2022-12-24T21:45:02.638Z,88576.00
2022-12-24T21:46:02.651Z,88574.00
2022-12-24T21:47:02.588Z,88572.00
2022-12-24T21:48:02.578Z,88564.00
2022-12-24T21:49:02.539Z,88563.00
2022-12-24T21:50:02.486Z,88563.00
2022-12-24T21:51:02.435Z,88564.00
2022-12-24T21:52:02.423Z,88570.00
2022-12-24T21:53:02.386Z,88570.00
2022-12-24T21:54:02.364Z,88570.00
2022-12-24T21:55:02.303Z,88568.00
2022-12-24T21:56:02.279Z,88568.00
2022-12-24T21:57:02.264Z,88568.00
2022-12-24T21:58:02.228Z,88568.00
2022-12-24T21:59:02.194Z,88566.00
2022-12-24T22:00:02.182Z,88563.00
2022-12-24T22:01:02.184Z,88563.00
2022-12-24T22:02:02.416Z,88561.00
2022-12-24T22:03:02.255Z,88564.00
2022-12-24T22:04:02.057Z,88564.00
2022-12-24T22:05:02.001Z,88570.00
2022-12-24T22:06:01.974Z,88570.00
2022-12-24T22:07:01.937Z,88568.00
2022-12-24T22:08:02.179Z,88566.00
2022-12-24T22:09:01.873Z,88559.00
2022-12-24T22:10:01.868Z,88557.00
2022-12-24T22:11:01.818Z,88559.00
2022-12-24T22:12:01.786Z,88563.00
2022-12-24T22:13:01.752Z,88564.00
2022-12-24T22:14:01.710Z,88564.00
2022-12-24T22:15:01.675Z,88564.00
2022-12-24T22:16:01.647Z,88563.00
2022-12-24T22:17:01.705Z,88557.00
2022-12-24T22:18:01.584Z,88557.00
2022-12-24T22:19:01.539Z,88557.00
2022-12-24T22:20:01.505Z,88561.00
2022-12-24T22:21:01.480Z,88566.00
2022-12-24T22:22:01.432Z,88566.00
2022-12-24T22:23:01.408Z,88566.00
2022-12-24T22:24:01.365Z,88564.00
2022-12-24T22:25:01.342Z,88564.00
2022-12-24T22:26:01.322Z,88561.00
2022-12-24T22:27:01.274Z,88561.00
2022-12-24T22:28:01.263Z,88561.00
2022-12-24T22:29:01.223Z,88563.00
2022-12-24T22:30:01.212Z,88561.00
2022-12-24T22:31:01.212Z,88561.00
2022-12-24T22:32:01.125Z,88563.00
2022-12-24T22:33:01.090Z,88566.00
2022-12-24T22:34:01.062Z,88568.00
2022-12-24T22:35:01.035Z,88568.00
2022-12-24T22:36:00.976Z,88566.00
2022-12-24T22:37:00.965Z,88563.00
2022-12-24T22:38:00.917Z,88561.00
2022-12-24T22:39:00.916Z,88561.00
2022-12-24T22:40:00.883Z,88564.00
2022-12-24T22:41:00.865Z,88564.00
2022-12-24T22:42:00.838Z,88570.00
2022-12-24T22:43:00.858Z,88566.00
2022-12-24T22:44:00.696Z,88568.00
2022-12-24T22:45:00.676Z,88568.00
2022-12-24T22:46:00.674Z,88570.00
2022-12-24T22:47:00.590Z,88570.00
2022-12-24T22:48:00.570Z,88568.00
2022-12-24T22:49:00.531Z,88570.00
2022-12-24T22:50:00.487Z,88570.00
2022-12-24T22:51:00.439Z,88570.00
2022-12-24T22:52:00.413Z,88574.00
2022-12-24T22:53:00.408Z,88576.00
2022-12-24T22:54:00.376Z,88578.00
2022-12-24T22:55:00.327Z,88578.00
2022-12-24T22:56:00.323Z,88574.00
2022-12-24T22:57:00.285Z,88574.00
2022-12-24T22:58:00.232Z,88572.00
2022-12-24T22:59:00.199Z,88574.00
2022-12-24T23:00:00.190Z,88574.00
2022-12-24T23:01:00.205Z,88576.00
2022-12-24T23:02:00.271Z,88576.00
